createdAt,value
2022-08-21T00:01:50.850Z,13.37
2022-08-21T00:04:22.381Z,13.33
2022-08-21T00:06:51.099Z,13.43
2022-08-21T00:09:18.641Z,13.22
2022-08-21T00:11:45.790Z,13.24
2022-08-21T00:14:13.934Z,13.38
2022-08-21T00:16:41.270Z,13.33
2022-08-21T00:19:09.524Z,12.95
2022-08-21T00:21:37.398Z,12.87
2022-08-21T00:24:04.593Z,12.99
2022-08-21T00:26:31.241Z,13.03
2022-08-21T00:28:58.398Z,12.94
2022-08-21T00:31:26.144Z,13.00
2022-08-21T00:33:52.960Z,12.95
2022-08-21T00:36:27.325Z,12.95
2022-08-21T00:38:54.156Z,12.68
2022-08-21T00:41:38.206Z,12.73
2022-08-21T00:44:07.898Z,12.64
2022-08-21T00:46:35.362Z,12.30
2022-08-21T00:49:02.080Z,12.39
2022-08-21T00:51:40.965Z,12.27
2022-08-21T00:54:12.980Z,12.48
2022-08-21T00:56:48.339Z,12.38
2022-08-21T00:59:17.449Z,12.52
2022-08-21T01:01:44.132Z,12.44
2022-08-21T01:04:11.085Z,12.50
2022-08-21T01:06:37.998Z,12.47
2022-08-21T01:09:04.907Z,12.51
2022-08-21T01:11:32.253Z,12.55
2022-08-21T01:13:59.017Z,12.51
2022-08-21T01:16:26.166Z,12.71
2022-08-21T01:18:53.134Z,12.81
2022-08-21T01:21:28.226Z,12.78
2022-08-21T01:23:57.402Z,12.54
2022-08-21T01:26:33.882Z,12.53
2022-08-21T01:29:11.206Z,12.53
2022-08-21T01:31:38.263Z,12.58
2022-08-21T01:34:05.128Z,12.41
2022-08-21T01:36:32.525Z,12.44
2022-08-21T01:38:59.537Z,12.23
2022-08-21T01:41:26.431Z,12.42
2022-08-21T01:43:53.075Z,12.15
2022-08-21T01:46:20.684Z,12.01
2022-08-21T01:48:47.387Z,12.24
2022-08-21T01:51:15.739Z,12.39
2022-08-21T01:53:42.969Z,12.07
2022-08-21T01:56:12.571Z,12.10
2022-08-21T01:58:41.310Z,11.75
2022-08-21T02:01:08.557Z,11.72
2022-08-21T02:03:36.278Z,11.75
2022-08-21T02:06:05.608Z,11.89
2022-08-21T02:08:32.735Z,11.77
2022-08-21T02:10:59.662Z,11.65
2022-08-21T02:13:26.690Z,11.69
2022-08-21T02:15:53.428Z,11.84
2022-08-21T02:18:20.102Z,11.88
2022-08-21T02:20:49.251Z,12.09
2022-08-21T02:23:27.044Z,12.28
2022-08-21T02:26:07.780Z,12.11
2022-08-21T02:28:36.159Z,12.10
2022-08-21T02:31:03.314Z,12.18
2022-08-21T02:33:31.182Z,12.02
2022-08-21T02:35:58.400Z,12.09
2022-08-21T02:38:28.229Z,12.23
2022-08-21T02:40:56.210Z,12.21
2022-08-21T02:43:24.678Z,12.23
2022-08-21T02:45:52.544Z,12.29
2022-08-21T02:48:22.688Z,12.37
2022-08-21T02:50:58.682Z,12.22
2022-08-21T02:53:25.737Z,12.30
2022-08-21T02:55:53.765Z,12.13
2022-08-21T02:58:28.327Z,12.23
2022-08-21T03:00:55.809Z,12.08
2022-08-21T03:03:22.619Z,12.16
2022-08-21T03:05:50.090Z,12.30
2022-08-21T03:08:18.727Z,12.26
2022-08-21T03:10:49.832Z,12.24
2022-08-21T03:13:17.101Z,12.46
2022-08-21T03:15:44.877Z,12.40
2022-08-21T03:18:12.517Z,12.40
2022-08-21T03:20:41.318Z,11.87
2022-08-21T03:23:13.159Z,12.06
2022-08-21T03:25:44.071Z,11.85
2022-08-21T03:28:14.944Z,11.86
2022-08-21T03:30:44.748Z,11.54
2022-08-21T03:33:13.098Z,11.70
2022-08-21T03:35:48.156Z,11.61
2022-08-21T03:38:14.985Z,11.67
2022-08-21T03:40:43.748Z,11.95
2022-08-21T03:43:11.249Z,12.02
2022-08-21T03:45:39.206Z,11.78
2022-08-21T03:48:07.689Z,11.86
2022-08-21T03:50:41.185Z,11.98
2022-08-21T03:53:16.735Z,11.92
2022-08-21T03:55:49.332Z,11.77
2022-08-21T03:58:18.093Z,12.03
2022-08-21T04:00:47.486Z,11.91
2022-08-21T04:03:14.234Z,11.61
2022-08-21T04:05:42.889Z,12.05
2022-08-21T04:08:10.167Z,11.82
2022-08-21T04:10:39.332Z,12.06
2022-08-21T04:13:07.454Z,11.80
2022-08-21T04:15:35.123Z,11.96
2022-08-21T04:18:02.141Z,11.73
2022-08-21T04:20:29.085Z,11.75
2022-08-21T04:22:56.241Z,12.07
2022-08-21T04:25:24.315Z,12.24
2022-08-21T04:27:52.215Z,12.32
2022-08-21T04:30:19.554Z,12.30
2022-08-21T04:32:56.149Z,12.39
2022-08-21T04:35:24.724Z,12.40
2022-08-21T04:37:51.921Z,12.44
2022-08-21T04:40:20.747Z,12.52
2022-08-21T04:42:55.650Z,12.14
2022-08-21T04:45:28.014Z,12.18
2022-08-21T04:47:57.950Z,12.39
2022-08-21T04:50:31.136Z,12.09
2022-08-21T04:52:58.699Z,12.38
2022-08-21T04:55:28.532Z,12.54
2022-08-21T04:57:57.154Z,12.50
2022-08-21T05:00:25.738Z,12.57
2022-08-21T05:02:57.539Z,12.73
2022-08-21T05:05:25.191Z,12.87
2022-08-21T05:07:54.256Z,12.63
2022-08-21T05:10:21.645Z,12.71
2022-08-21T05:12:48.523Z,12.70
2022-08-21T05:15:15.570Z,12.67
2022-08-21T05:17:42.935Z,12.73
2022-08-21T05:20:11.690Z,12.62
2022-08-21T05:22:38.422Z,12.85
2022-08-21T05:25:10.624Z,12.99
2022-08-21T05:27:39.645Z,12.89
2022-08-21T05:30:10.741Z,12.89
2022-08-21T05:32:37.845Z,12.83
2022-08-21T05:35:08.450Z,12.68
2022-08-21T05:37:36.136Z,12.63
2022-08-21T05:40:21.600Z,12.79
2022-08-21T05:42:55.627Z,12.86
2022-08-21T05:45:41.983Z,12.75
2022-08-21T05:48:18.023Z,12.66
2022-08-21T05:50:47.260Z,12.66
2022-08-21T05:53:15.639Z,12.89
2022-08-21T05:55:46.109Z,12.90
2022-08-21T05:58:19.778Z,12.88
2022-08-21T06:00:48.632Z,12.80
2022-08-21T06:03:23.568Z,12.90
2022-08-21T06:05:50.985Z,12.99
2022-08-21T06:08:19.251Z,12.72
2022-08-21T06:10:47.709Z,13.02
2022-08-21T06:13:15.518Z,13.10
2022-08-21T06:15:42.826Z,13.01
2022-08-21T06:18:10.140Z,13.13
2022-08-21T06:20:37.098Z,13.15
2022-08-21T06:23:07.306Z,13.06
2022-08-21T06:25:34.234Z,13.20
2022-08-21T06:28:07.196Z,13.32
2022-08-21T06:30:35.450Z,13.47
2022-08-21T06:33:03.392Z,13.42
2022-08-21T06:35:30.405Z,13.44
2022-08-21T06:37:58.594Z,14.21
2022-08-21T06:40:26.494Z,14.22
2022-08-21T06:42:53.569Z,14.98
2022-08-21T06:45:20.879Z,15.57
2022-08-21T06:47:47.734Z,16.17
2022-08-21T06:50:14.493Z,16.26
2022-08-21T06:52:41.472Z,16.71
2022-08-21T06:55:10.850Z,16.87
2022-08-21T06:57:37.703Z,16.96
2022-08-21T07:00:06.536Z,17.42
2022-08-21T07:02:34.695Z,17.54
2022-08-21T07:05:09.010Z,18.40
2022-08-21T07:07:45.491Z,17.63
2022-08-21T07:10:21.987Z,18.29
2022-08-21T07:12:49.541Z,18.02
2022-08-21T07:15:17.957Z,18.44
2022-08-21T07:17:44.713Z,19.00
2022-08-21T07:20:11.687Z,19.11
2022-08-21T07:22:41.900Z,19.68
2022-08-21T07:25:09.648Z,19.90
2022-08-21T07:27:37.317Z,19.75
2022-08-21T07:30:06.157Z,19.94
2022-08-21T07:32:33.325Z,19.59
2022-08-21T07:35:00.058Z,20.17
2022-08-21T07:37:27.058Z,19.77
2022-08-21T07:39:53.973Z,20.39
2022-08-21T07:42:20.839Z,19.86
2022-08-21T07:44:47.729Z,20.32
2022-08-21T07:47:17.731Z,20.75
2022-08-21T07:50:04.947Z,20.21
2022-08-21T07:52:32.069Z,20.07
2022-08-21T07:55:05.376Z,20.56
2022-08-21T07:57:33.120Z,20.35
2022-08-21T07:59:59.932Z,19.90
2022-08-21T08:02:29.168Z,20.07
2022-08-21T08:05:00.221Z,20.33
2022-08-21T08:07:27.243Z,20.15
2022-08-21T08:09:54.252Z,20.36
2022-08-21T08:12:21.819Z,20.27
2022-08-21T08:14:48.656Z,20.15
2022-08-21T08:17:15.414Z,19.22
2022-08-21T08:19:42.179Z,19.74
2022-08-21T08:22:21.608Z,19.88
2022-08-21T08:24:49.485Z,20.36
2022-08-21T08:27:17.330Z,20.19
2022-08-21T08:29:45.171Z,20.71
2022-08-21T08:32:12.356Z,20.67
2022-08-21T08:34:39.984Z,20.83
2022-08-21T08:37:10.677Z,21.08
2022-08-21T08:39:39.081Z,20.78
2022-08-21T08:42:34.042Z,21.42
2022-08-21T08:45:14.815Z,21.43
2022-08-21T08:47:47.730Z,21.04
2022-08-21T08:50:29.541Z,21.78
2022-08-21T08:53:05.912Z,21.22
2022-08-21T08:55:42.197Z,21.73
2022-08-21T08:58:27.878Z,21.52
2022-08-21T09:00:56.267Z,21.69
2022-08-21T09:03:27.903Z,21.71
2022-08-21T09:06:07.556Z,22.24
2022-08-21T09:09:03.548Z,22.41
2022-08-21T09:11:53.350Z,22.02
2022-08-21T09:14:45.346Z,22.40
2022-08-21T09:17:27.736Z,22.34
2022-08-21T09:20:18.716Z,22.61
2022-08-21T09:22:54.130Z,21.80
2022-08-21T09:25:31.965Z,22.28
2022-08-21T09:27:58.736Z,22.23
2022-08-21T09:30:30.494Z,22.36
2022-08-21T09:32:57.984Z,21.50
2022-08-21T09:35:25.806Z,20.94
2022-08-21T09:38:03.976Z,20.93
2022-08-21T09:40:36.752Z,21.47
2022-08-21T09:43:05.879Z,21.95
2022-08-21T09:45:34.186Z,21.66
2022-08-21T09:53:55.979Z,22.16
2022-08-21T09:56:46.018Z,22.26
2022-08-21T09:59:36.336Z,22.19
2022-08-21T10:02:35.943Z,22.55
2022-08-21T10:05:24.857Z,22.49
2022-08-21T10:07:52.330Z,21.42
2022-08-21T10:10:27.759Z,21.73
2022-08-21T10:13:15.125Z,21.85
2022-08-21T10:15:53.706Z,21.31
2022-08-21T10:18:39.072Z,20.08
2022-08-21T10:21:27.884Z,20.78
2022-08-21T10:24:31.072Z,20.38
2022-08-21T10:27:11.133Z,21.07
2022-08-21T10:30:00.903Z,20.99
2022-08-21T10:32:57.014Z,20.60
2022-08-21T10:35:23.755Z,20.57
2022-08-21T10:38:10.167Z,20.06
2022-08-21T10:40:59.746Z,19.80
2022-08-21T10:43:40.164Z,19.94
2022-08-21T10:46:51.483Z,19.61
2022-08-21T10:49:18.212Z,20.79
2022-08-21T10:52:20.133Z,21.22
2022-08-21T10:54:53.483Z,21.54
2022-08-21T10:57:43.485Z,21.80
2022-08-21T11:00:14.954Z,21.60
2022-08-21T11:02:46.417Z,22.10
2022-08-21T11:05:20.626Z,21.43
2022-08-21T11:08:01.239Z,21.04
2022-08-21T11:10:58.209Z,20.99
2022-08-21T11:13:35.935Z,20.54
2022-08-21T11:16:18.620Z,20.00
2022-08-21T11:18:52.158Z,20.39
2022-08-21T11:21:35.734Z,20.32
2022-08-21T11:24:17.006Z,20.69
2022-08-21T11:27:16.278Z,20.26
2022-08-21T11:29:45.955Z,19.99
2022-08-21T11:32:27.837Z,20.30
2022-08-21T11:35:12.947Z,20.72
2022-08-21T11:37:57.681Z,20.58
2022-08-21T11:40:36.582Z,20.41
2022-08-21T11:43:31.245Z,20.43
2022-08-21T11:46:23.871Z,20.09
2022-08-21T11:49:02.915Z,20.99
2022-08-21T11:52:14.672Z,20.56
2022-08-21T11:55:04.220Z,20.37
2022-08-21T11:57:56.236Z,20.43
2022-08-21T12:00:34.509Z,20.24
2022-08-21T12:03:14.137Z,20.12
2022-08-21T12:05:43.428Z,20.95
2022-08-21T12:08:10.054Z,21.71
2022-08-21T12:10:49.064Z,21.50
2022-08-21T12:13:40.699Z,21.47
2022-08-21T12:16:29.060Z,20.72
2022-08-21T12:19:31.529Z,21.01
2022-08-21T12:21:58.142Z,21.20
2022-08-21T12:24:28.065Z,20.86
2022-08-21T12:26:56.308Z,20.37
2022-08-21T12:29:33.853Z,20.55
2022-08-21T12:32:01.965Z,21.10
2022-08-21T12:34:54.603Z,21.04
2022-08-21T12:37:40.905Z,21.47
2022-08-21T12:40:42.752Z,21.87
2022-08-21T12:43:17.461Z,22.29
2022-08-21T12:45:52.241Z,21.85
2022-08-21T12:48:28.024Z,21.74
2022-08-21T12:51:34.962Z,21.34
2022-08-21T12:54:01.783Z,21.52
2022-08-21T12:56:32.358Z,22.14
2022-08-21T12:59:06.252Z,21.84
2022-08-21T13:01:41.863Z,22.35
2022-08-21T13:04:17.549Z,22.57
2022-08-21T13:06:52.399Z,22.37
2022-08-21T13:09:24.581Z,21.93
2022-08-21T13:11:52.647Z,22.06
2022-08-21T13:14:26.836Z,22.20
2022-08-21T13:16:56.107Z,22.40
2022-08-21T13:19:24.109Z,22.30
2022-08-21T13:21:53.498Z,21.88
2022-08-21T13:24:41.107Z,22.49
2022-08-21T13:27:31.383Z,22.18
2022-08-21T13:30:23.241Z,22.13
2022-08-21T13:32:53.577Z,22.18
2022-08-21T13:35:27.089Z,22.02
2022-08-21T13:37:56.362Z,21.64
2022-08-21T13:40:30.368Z,21.98
2022-08-21T13:42:58.003Z,21.80
2022-08-21T13:45:33.778Z,22.08
2022-08-21T13:48:06.721Z,22.61
2022-08-21T13:50:43.640Z,22.45
2022-08-21T13:53:25.095Z,22.42
2022-08-21T13:55:52.246Z,22.17
2022-08-21T13:58:46.671Z,22.45
2022-08-21T14:01:38.195Z,22.69
2022-08-21T14:04:20.563Z,22.59
2022-08-21T14:06:48.127Z,22.53
2022-08-21T14:09:31.771Z,22.24
2022-08-21T14:12:22.253Z,22.56
2022-08-21T14:14:52.843Z,22.53
2022-08-21T14:17:34.656Z,22.94
2022-08-21T14:20:02.196Z,22.94
2022-08-21T14:22:44.545Z,22.88
2022-08-21T14:25:20.385Z,22.13
2022-08-21T14:28:19.317Z,22.17
2022-08-21T14:30:47.513Z,21.72
2022-08-21T14:33:32.016Z,21.68
2022-08-21T14:35:59.949Z,21.98
2022-08-21T14:38:28.718Z,21.77
2022-08-21T14:41:12.595Z,21.80
2022-08-21T14:43:40.155Z,22.19
2022-08-21T14:46:06.976Z,22.42
2022-08-21T14:48:33.921Z,22.43
2022-08-21T14:51:00.936Z,21.56
2022-08-21T14:53:27.901Z,22.07
2022-08-21T14:56:08.090Z,21.97
2022-08-21T14:58:39.230Z,21.71
2022-08-21T15:01:10.511Z,21.72
2022-08-21T15:03:38.163Z,21.13
2022-08-21T15:06:07.504Z,21.51
2022-08-21T15:08:35.021Z,21.05
2022-08-21T15:11:13.805Z,21.20
2022-08-21T15:13:43.393Z,20.93
2022-08-21T15:16:12.163Z,20.35
2022-08-21T15:18:39.650Z,20.79
2022-08-21T15:21:06.974Z,20.44
2022-08-21T15:23:33.901Z,19.92
2022-08-21T15:26:00.895Z,20.51
2022-08-21T15:28:31.864Z,20.71
2022-08-21T15:31:01.714Z,20.45
2022-08-21T15:33:29.098Z,20.90
2022-08-21T15:35:56.015Z,20.93
2022-08-21T15:38:23.092Z,20.89
2022-08-21T15:40:52.317Z,20.90
2022-08-21T15:43:29.838Z,20.92
2022-08-21T15:45:59.943Z,20.92
2022-08-21T15:48:27.178Z,21.42
2022-08-21T15:50:54.144Z,21.24
2022-08-21T15:53:21.072Z,20.96
2022-08-21T15:55:48.162Z,21.11
2022-08-21T15:58:17.534Z,21.40
2022-08-21T16:00:47.978Z,21.46
2022-08-21T16:03:19.142Z,21.55
2022-08-21T16:05:46.359Z,20.94
2022-08-21T16:08:13.223Z,20.85
2022-08-21T16:10:40.584Z,21.05
2022-08-21T16:13:21.181Z,21.49
2022-08-21T16:15:48.101Z,21.80
2022-08-21T16:18:15.232Z,22.08
2022-08-21T16:20:42.228Z,21.46
2022-08-21T16:23:09.087Z,21.58
2022-08-21T16:25:38.603Z,21.67
2022-08-21T16:28:09.789Z,21.40
2022-08-21T16:30:39.194Z,21.04
2022-08-21T16:33:06.799Z,21.13
2022-08-21T16:35:33.664Z,21.26
2022-08-21T16:38:01.200Z,20.90
2022-08-21T16:40:28.680Z,21.13
2022-08-21T16:42:56.560Z,20.48
2022-08-21T16:45:23.520Z,21.13
2022-08-21T16:47:51.519Z,20.72
2022-08-21T16:50:22.750Z,20.37
2022-08-21T16:52:50.222Z,21.19
2022-08-21T16:55:17.689Z,21.07
2022-08-21T16:57:44.890Z,20.97
2022-08-21T17:00:13.958Z,20.66
2022-08-21T17:02:55.525Z,20.90
2022-08-21T17:05:22.859Z,20.92
2022-08-21T17:07:49.832Z,20.78
2022-08-21T17:10:17.531Z,20.45
2022-08-21T17:12:51.536Z,20.50
2022-08-21T17:15:23.983Z,20.60
2022-08-21T17:17:51.644Z,20.33
2022-08-21T17:20:19.423Z,20.02
2022-08-21T17:22:46.468Z,19.60
2022-08-21T17:25:13.811Z,20.42
2022-08-21T17:27:41.641Z,20.21
2022-08-21T17:30:08.983Z,20.40
2022-08-21T17:32:35.895Z,20.02
2022-08-21T17:35:03.065Z,19.99
2022-08-21T17:37:30.109Z,20.24
2022-08-21T17:39:57.618Z,20.40
2022-08-21T17:42:26.973Z,19.88
2022-08-21T17:44:56.633Z,19.64
2022-08-21T17:47:25.152Z,20.08
2022-08-21T17:49:54.895Z,19.92
2022-08-21T17:52:22.897Z,19.99
2022-08-21T17:57:35.779Z,19.88
2022-08-21T18:00:05.709Z,20.27
2022-08-21T18:02:33.582Z,20.33
2022-08-21T18:05:00.528Z,19.67
2022-08-21T18:07:32.824Z,19.90
2022-08-21T18:10:02.076Z,19.45
2022-08-21T18:12:29.926Z,19.47
2022-08-21T18:14:57.397Z,19.59
2022-08-21T18:17:25.547Z,19.18
2022-08-21T18:19:52.345Z,19.33
2022-08-21T18:22:19.590Z,18.85
2022-08-21T18:24:46.597Z,19.08
2022-08-21T18:27:15.200Z,19.15
2022-08-21T18:29:47.471Z,19.04
2022-08-21T18:32:30.500Z,18.74
2022-08-21T18:35:01.684Z,19.00
2022-08-21T18:37:28.947Z,18.49
2022-08-21T18:39:56.791Z,18.85
2022-08-21T18:42:28.361Z,19.13
2022-08-21T18:45:01.623Z,18.81
2022-08-21T18:47:37.569Z,18.94
2022-08-21T18:50:10.863Z,18.46
2022-08-21T18:52:38.578Z,18.38
2022-08-21T18:55:13.432Z,18.64
2022-08-21T18:57:42.350Z,18.57
2022-08-21T19:00:18.609Z,18.57
2022-08-21T19:02:45.459Z,18.34
2022-08-21T19:05:15.185Z,18.57
2022-08-21T19:07:41.966Z,18.25
2022-08-21T19:10:28.033Z,18.40
2022-08-21T19:12:59.371Z,18.41
2022-08-21T19:15:26.767Z,18.29
2022-08-21T19:17:54.489Z,18.34
2022-08-21T19:20:28.353Z,18.14
2022-08-21T19:22:56.393Z,18.24
2022-08-21T19:28:16.207Z,18.15
2022-08-21T19:30:56.508Z,18.26
2022-08-21T19:33:37.991Z,18.18
2022-08-21T19:36:08.157Z,18.11
2022-08-21T19:38:36.730Z,18.20
2022-08-21T19:41:06.277Z,17.86
2022-08-21T19:43:41.044Z,17.99
2022-08-21T19:46:08.079Z,17.73
2022-08-21T19:48:37.367Z,17.94
2022-08-21T19:51:05.302Z,18.03
2022-08-21T19:53:32.072Z,18.04
2022-08-21T19:55:58.853Z,17.78
2022-08-21T19:58:38.592Z,18.11
2022-08-21T20:01:16.578Z,18.16
2022-08-21T20:06:33.244Z,17.94
2022-08-21T20:09:00.171Z,18.18
2022-08-21T20:11:36.531Z,18.27
2022-08-21T20:14:04.995Z,18.21
2022-08-21T20:16:31.718Z,18.03
2022-08-21T20:18:58.681Z,17.84
2022-08-21T20:21:25.441Z,17.87
2022-08-21T20:23:53.011Z,17.79
2022-08-21T20:26:19.943Z,18.07
2022-08-21T20:31:33.817Z,17.99
2022-08-21T20:34:00.835Z,18.07
2022-08-21T20:36:27.599Z,18.01
2022-08-21T20:38:54.726Z,18.04
2022-08-21T20:41:30.443Z,18.10
2022-08-21T20:43:59.222Z,17.85
2022-08-21T20:46:27.732Z,17.90
2022-08-21T20:48:54.914Z,17.90
2022-08-21T20:51:34.783Z,17.94
2022-08-21T20:54:04.565Z,17.73
2022-08-21T20:56:56.287Z,18.00
2022-08-21T20:59:33.339Z,17.93
2022-08-21T21:02:15.130Z,17.96
2022-08-21T21:05:22.270Z,17.84
2022-08-21T21:08:19.575Z,17.89
2022-08-21T21:10:55.349Z,17.93
2022-08-21T21:13:44.035Z,17.75
2022-08-21T21:16:17.973Z,17.79
2022-08-21T21:18:51.047Z,17.81
2022-08-21T21:22:11.142Z,18.19
2022-08-21T21:24:51.346Z,18.15
2022-08-21T21:27:29.591Z,18.10
2022-08-21T21:30:26.799Z,17.83
2022-08-21T21:32:53.730Z,17.90
2022-08-21T21:35:32.560Z,18.03
2022-08-21T21:38:26.158Z,17.77
2022-08-21T21:41:03.154Z,17.91
2022-08-21T21:43:52.885Z,17.81
2022-08-21T21:46:34.716Z,17.69
2022-08-21T21:49:33.143Z,17.41
2022-08-21T21:52:21.133Z,17.18
2022-08-21T21:55:01.321Z,17.04
2022-08-21T21:57:45.913Z,16.65
2022-08-21T22:00:20.895Z,16.26
2022-08-21T22:03:16.670Z,16.66
2022-08-21T22:06:07.565Z,16.70
2022-08-21T22:09:05.231Z,16.98
2022-08-21T22:12:03.217Z,17.00
2022-08-21T22:14:40.728Z,16.70
2022-08-21T22:17:28.905Z,16.87
2022-08-21T22:19:58.346Z,16.57
2022-08-21T22:22:28.991Z,16.36
2022-08-21T22:25:03.802Z,16.68
2022-08-21T22:27:37.111Z,16.63
2022-08-21T22:30:06.668Z,16.64
2022-08-21T22:32:52.426Z,16.62
2022-08-21T22:35:24.019Z,16.45
2022-08-21T22:37:55.147Z,16.04
2022-08-21T22:40:32.353Z,15.93
2022-08-21T22:43:16.343Z,15.51
2022-08-21T22:45:57.511Z,15.82
2022-08-21T22:48:29.531Z,15.66
2022-08-21T22:51:24.226Z,15.80
2022-08-21T22:53:57.535Z,15.73
2022-08-21T22:56:35.302Z,15.39
2022-08-21T22:59:11.215Z,15.53
2022-08-21T23:01:44.712Z,15.67
2022-08-21T23:04:22.773Z,15.52
2022-08-21T23:07:02.435Z,15.42
2022-08-21T23:09:32.650Z,15.50
2022-08-21T23:12:21.069Z,15.48
2022-08-21T23:14:55.026Z,15.47
2022-08-21T23:17:49.817Z,15.25
2022-08-21T23:20:31.303Z,15.07
2022-08-21T23:23:19.182Z,15.28
2022-08-21T23:26:17.608Z,15.36
2022-08-21T23:29:13.941Z,15.26
2022-08-21T23:32:08.339Z,15.06
2022-08-21T23:34:52.678Z,14.85
2022-08-21T23:37:51.481Z,15.13
2022-08-21T23:40:50.809Z,15.00
2022-08-21T23:43:38.849Z,14.90
2022-08-21T23:46:08.554Z,14.99
2022-08-21T23:49:00.740Z,15.15
2022-08-21T23:51:47.170Z,14.99
2022-08-21T23:54:29.306Z,14.76
